MA72 weather

Tuckernuck Airport
Tuckernuck Island, Massachusetts, United States

Public forecast

Using degrees Fahrenheit for public forecast. Weather courtesy of forecast.io.

METAR (pilot weather report)

Closest report is Nantucket Memorial Airport, 9.4 nm (17.4 km) ESE. Retrieved 2019/07/21 17:53 UTC (16 minutes ago):

KACK 211753Z 25013KT 10SM CLR 29/23 A2974 RMK AO2 SLP069 T02940233 10306 20239 58008

TAF (pilot weather forecast)

Closest forecast is Nantucket Memorial Airport, 9.4 nm (17.4 km) ESE. Retrieved 2019/07/21 12:22 UTC (6 hours ago):

TAF KACK 211120Z 2112/2212 25010KT P6SM FEW200 FM211800 25014KT P6SM SCT250 FM220200 27010KT 5SM BR VCSH SCT060 FM220500 32007KT 5SM BR SCT060